createdAt,value
2019-05-13T00:00:19.067Z,79.36
2019-05-13T00:02:50.796Z,79.13
2019-05-13T00:05:23.371Z,79.28
2019-05-13T00:07:54.877Z,79.38
2019-05-13T00:10:26.424Z,79.42
2019-05-13T00:12:59.484Z,79.43
2019-05-13T00:15:30.826Z,79.37
2019-05-13T00:18:04.038Z,79.61
2019-05-13T00:20:35.392Z,79.37
2019-05-13T00:23:06.818Z,79.42
2019-05-13T00:25:38.307Z,79.35
2019-05-13T00:28:09.840Z,79.76
2019-05-13T00:30:41.382Z,79.33
2019-05-13T00:33:13.933Z,79.63
2019-05-13T00:35:45.426Z,79.75
2019-05-13T00:38:17.994Z,79.33
2019-05-13T00:40:49.271Z,79.66
2019-05-13T00:43:20.675Z,79.68
2019-05-13T00:45:53.307Z,79.56
2019-05-13T00:48:24.758Z,79.44
2019-05-13T00:50:56.259Z,79.65
2019-05-13T00:53:27.554Z,79.41
2019-05-13T00:55:59.019Z,79.58
2019-05-13T00:58:30.328Z,79.36
2019-05-13T01:01:03.606Z,79.72
2019-05-13T01:03:34.844Z,80.01
2019-05-13T01:06:06.302Z,80.67
2019-05-13T01:08:37.662Z,80.67
2019-05-13T01:11:09.097Z,80.38
2019-05-13T01:13:40.481Z,80.16
2019-05-13T01:16:13.975Z,80.38
2019-05-13T01:18:45.108Z,80.38
2019-05-13T01:21:16.543Z,80.12
2019-05-13T01:23:48.007Z,80.26
2019-05-13T01:26:19.343Z,80.23
2019-05-13T01:28:50.795Z,79.98
2019-05-13T01:31:23.826Z,79.96
2019-05-13T01:33:55.463Z,80.48
2019-05-13T01:36:27.016Z,80.58
2019-05-13T01:38:59.984Z,80.48
2019-05-13T01:41:33.395Z,80.50
2019-05-13T01:44:04.600Z,80.55
2019-05-13T01:46:35.999Z,80.55
2019-05-13T01:49:07.430Z,80.58
2019-05-13T01:51:38.693Z,80.53
2019-05-13T01:54:14.234Z,80.59
2019-05-13T01:56:45.707Z,80.40
2019-05-13T01:59:17.116Z,80.27
2019-05-13T02:01:48.527Z,80.67
2019-05-13T02:04:19.850Z,80.67
2019-05-13T02:06:51.261Z,81.12
2019-05-13T02:09:24.473Z,80.94
2019-05-13T02:11:55.316Z,80.77
2019-05-13T02:14:26.463Z,81.43
2019-05-13T02:16:57.886Z,81.45
2019-05-13T02:19:29.336Z,81.55
2019-05-13T02:22:03.967Z,81.19
2019-05-13T02:24:35.004Z,81.39
2019-05-13T02:27:06.306Z,80.20
2019-05-13T02:29:37.789Z,80.50
2019-05-13T02:32:09.043Z,80.47
2019-05-13T02:34:43.752Z,80.46
2019-05-13T02:37:13.524Z,80.51
2019-05-13T02:39:44.825Z,80.50
2019-05-13T02:42:16.785Z,80.46
2019-05-13T02:44:48.255Z,80.57
2019-05-13T02:47:22.553Z,79.85
2019-05-13T02:49:53.903Z,79.92
2019-05-13T02:52:25.272Z,80.44
2019-05-13T02:54:56.721Z,80.02
2019-05-13T02:57:28.099Z,79.78
2019-05-13T03:00:03.705Z,79.02
2019-05-13T03:02:32.926Z,77.99
2019-05-13T03:05:08.284Z,78.23
2019-05-13T03:07:42.564Z,78.80
2019-05-13T03:10:14.095Z,78.02
2019-05-13T03:12:45.360Z,78.25
2019-05-13T03:15:17.219Z,78.55
2019-05-13T03:17:54.330Z,78.76
2019-05-13T03:20:25.773Z,78.39
2019-05-13T03:22:57.273Z,78.65
2019-05-13T03:25:28.675Z,78.59
2019-05-13T03:28:03.079Z,78.79
2019-05-13T03:30:35.478Z,78.11
2019-05-13T03:33:10.859Z,77.93
2019-05-13T03:35:45.725Z,77.05
2019-05-13T03:38:14.918Z,76.94
2019-05-13T03:40:48.101Z,76.67
2019-05-13T03:43:22.930Z,77.84
2019-05-13T03:45:55.788Z,77.30
2019-05-13T03:48:27.148Z,76.59
2019-05-13T03:50:58.648Z,76.61
2019-05-13T03:53:32.540Z,77.22
2019-05-13T03:56:03.021Z,78.83
2019-05-13T03:58:34.297Z,78.78
2019-05-13T04:01:05.886Z,78.13
2019-05-13T04:03:37.376Z,78.53
2019-05-13T04:06:08.888Z,76.94
2019-05-13T04:08:43.250Z,77.58
2019-05-13T04:11:13.660Z,78.72
2019-05-13T04:13:45.068Z,77.26
2019-05-13T04:16:16.444Z,76.53
2019-05-13T04:18:47.968Z,75.74
2019-05-13T04:21:22.588Z,74.96
2019-05-13T04:23:53.349Z,75.12
2019-05-13T04:26:25.044Z,73.12
2019-05-13T04:28:56.462Z,72.20
2019-05-13T04:31:27.908Z,74.27
2019-05-13T04:34:02.108Z,74.27
2019-05-13T04:36:32.100Z,75.19
2019-05-13T04:39:05.207Z,74.46
2019-05-13T04:41:36.692Z,73.79
2019-05-13T04:44:08.024Z,74.95
2019-05-13T04:46:43.038Z,73.33
2019-05-13T04:49:12.637Z,72.18
2019-05-13T04:51:43.749Z,72.07
2019-05-13T04:54:15.093Z,70.63
2019-05-13T04:56:46.531Z,70.66
2019-05-13T04:59:17.873Z,71.91
2019-05-13T05:02:37.290Z,71.36
2019-05-13T05:05:26.677Z,71.41
2019-05-13T05:08:13.261Z,73.16
2019-05-13T05:11:13.038Z,72.38
2019-05-13T05:14:19.149Z,72.93
2019-05-13T05:17:22.294Z,72.12
2019-05-13T05:20:18.158Z,72.40
2019-05-13T05:23:04.300Z,71.79
2019-05-13T05:26:15.217Z,71.87
2019-05-13T05:29:07.677Z,73.00
2019-05-13T05:31:48.211Z,72.73
2019-05-13T05:34:51.970Z,72.56
2019-05-13T05:37:44.262Z,71.14
2019-05-13T05:40:30.917Z,71.81
2019-05-13T05:42:52.440Z,72.64
2019-05-13T05:45:24.141Z,71.54
2019-05-13T05:48:01.557Z,69.10
2019-05-13T05:50:35.587Z,68.14
2019-05-13T05:53:07.127Z,68.57
2019-05-13T05:55:41.610Z,68.74
2019-05-13T05:58:14.526Z,66.72
2019-05-13T06:00:48.364Z,66.11
2019-05-13T06:03:21.937Z,65.48
2019-05-13T06:05:53.252Z,66.91
2019-05-13T06:08:24.811Z,65.36
2019-05-13T06:10:56.130Z,66.61
2019-05-13T06:13:27.476Z,65.61
2019-05-13T06:15:58.914Z,66.12
2019-05-13T06:18:32.482Z,65.08
2019-05-13T06:21:03.417Z,65.21
2019-05-13T06:23:34.943Z,66.62
2019-05-13T06:26:06.343Z,66.14
2019-05-13T06:28:37.791Z,64.36
2019-05-13T06:31:09.110Z,65.42
2019-05-13T06:33:42.198Z,66.04
2019-05-13T06:36:13.052Z,65.80
2019-05-13T06:38:44.106Z,65.65
2019-05-13T06:41:15.522Z,65.31
2019-05-13T06:43:46.963Z,65.27
2019-05-13T06:46:18.628Z,63.89
2019-05-13T06:48:52.078Z,64.70
2019-05-13T06:51:23.163Z,64.38
2019-05-13T06:53:54.549Z,64.97
2019-05-13T06:56:26.080Z,63.25
2019-05-13T06:58:57.581Z,63.21
2019-05-13T07:01:29.133Z,62.82
2019-05-13T07:04:02.413Z,62.87
2019-05-13T07:06:33.130Z,61.25
2019-05-13T07:09:06.455Z,62.47
2019-05-13T07:11:37.801Z,62.85
2019-05-13T07:14:12.358Z,62.50
2019-05-13T07:16:42.846Z,62.50
2019-05-13T07:19:14.243Z,62.67
2019-05-13T07:21:45.693Z,62.11
2019-05-13T07:24:17.071Z,61.00
2019-05-13T07:26:48.494Z,60.11
2019-05-13T07:29:20.477Z,59.23
2019-05-13T07:31:52.648Z,58.03
2019-05-13T07:34:24.860Z,57.32
2019-05-13T07:36:56.367Z,57.42
2019-05-13T07:39:28.272Z,56.75
2019-05-13T07:42:02.689Z,56.35
2019-05-13T07:44:32.592Z,56.24
2019-05-13T07:47:04.404Z,54.86
2019-05-13T07:49:35.737Z,53.92
2019-05-13T07:52:07.468Z,54.12
2019-05-13T07:54:41.513Z,53.51
2019-05-13T07:57:12.475Z,53.10
2019-05-13T07:59:43.939Z,53.11
2019-05-13T08:02:15.492Z,53.00
2019-05-13T08:04:49.391Z,53.08
2019-05-13T08:07:22.441Z,51.21
2019-05-13T08:09:55.717Z,50.78
2019-05-13T08:12:25.266Z,49.01
2019-05-13T08:14:56.725Z,50.66
2019-05-13T08:17:28.385Z,47.18
2019-05-13T08:20:02.622Z,48.59
2019-05-13T08:22:32.263Z,47.74
2019-05-13T08:25:03.495Z,45.83
2019-05-13T08:27:35.314Z,45.05
2019-05-13T08:30:08.648Z,45.63
2019-05-13T08:32:41.884Z,44.41
2019-05-13T08:35:13.594Z,43.19
2019-05-13T08:37:44.943Z,42.81
2019-05-13T08:40:19.971Z,42.19
2019-05-13T08:42:51.931Z,42.30
2019-05-13T08:45:22.462Z,42.23
2019-05-13T08:47:53.741Z,42.19
2019-05-13T08:50:25.227Z,42.56
2019-05-13T08:52:56.681Z,41.90
2019-05-13T08:55:28.130Z,42.07
2019-05-13T08:58:01.625Z,42.82
2019-05-13T09:00:48.503Z,43.82
2019-05-13T09:03:21.517Z,44.30
2019-05-13T09:05:54.566Z,45.00
2019-05-13T09:08:26.610Z,44.73
2019-05-13T09:10:58.008Z,45.17
2019-05-13T09:13:29.383Z,44.91
2019-05-13T09:16:02.441Z,46.33
2019-05-13T09:18:34.142Z,46.00
2019-05-13T09:21:05.603Z,45.89
2019-05-13T09:23:36.955Z,46.48
2019-05-13T09:26:08.388Z,45.77
2019-05-13T09:28:41.710Z,46.49
2019-05-13T09:31:12.773Z,47.62
2019-05-13T09:33:43.883Z,46.82
2019-05-13T09:36:15.558Z,46.01
2019-05-13T09:38:46.937Z,44.68
2019-05-13T09:41:21.325Z,44.90
2019-05-13T09:43:51.728Z,45.21
2019-05-13T09:46:23.109Z,44.36
2019-05-13T09:49:11.518Z,44.11
2019-05-13T09:51:27.468Z,44.40
2019-05-13T09:54:01.136Z,44.27
2019-05-13T09:56:31.926Z,44.64
2019-05-13T09:59:03.414Z,44.79
2019-05-13T10:01:34.817Z,44.82
2019-05-13T10:04:06.567Z,44.56
2019-05-13T10:06:38.060Z,44.92
2019-05-13T10:09:09.500Z,45.96
2019-05-13T10:11:41.022Z,46.07
2019-05-13T10:14:12.506Z,46.28
2019-05-13T10:16:43.826Z,46.10
2019-05-13T10:19:15.184Z,46.55
2019-05-13T10:21:46.488Z,46.30
2019-05-13T10:24:19.058Z,47.71
2019-05-13T10:26:51.513Z,50.21
2019-05-13T10:29:23.499Z,52.72
2019-05-13T10:31:54.911Z,56.13
2019-05-13T10:34:26.383Z,55.17
2019-05-13T10:36:58.331Z,53.96
2019-05-13T10:39:29.862Z,54.61
2019-05-13T10:42:03.687Z,53.47
2019-05-13T10:44:33.669Z,53.79
2019-05-13T10:47:04.968Z,53.70
2019-05-13T10:49:36.360Z,53.72
2019-05-13T10:52:07.844Z,54.71
2019-05-13T10:54:41.089Z,54.34
2019-05-13T10:57:13.761Z,54.38
2019-05-13T10:59:45.385Z,53.99
2019-05-13T11:02:16.852Z,53.62
2019-05-13T11:04:48.211Z,52.11
2019-05-13T11:07:22.257Z,50.86
2019-05-13T11:09:52.975Z,50.37
2019-05-13T11:12:28.530Z,50.82
2019-05-13T11:14:57.505Z,52.16
2019-05-13T11:17:30.902Z,52.31
2019-05-13T11:20:03.471Z,53.08
2019-05-13T11:22:34.426Z,52.02
2019-05-13T11:25:06.715Z,52.61
2019-05-13T11:27:38.050Z,51.89
2019-05-13T11:30:09.845Z,52.92
2019-05-13T11:32:42.734Z,53.95
2019-05-13T11:35:15.954Z,53.34
2019-05-13T11:37:47.519Z,53.15
2019-05-13T11:40:19.155Z,55.17
2019-05-13T11:42:52.617Z,54.07
2019-05-13T11:45:23.843Z,52.88
2019-05-13T11:47:55.372Z,53.66
2019-05-13T11:50:26.825Z,53.64
2019-05-13T11:52:59.077Z,52.63
2019-05-13T11:55:30.421Z,52.11
2019-05-13T11:58:02.867Z,51.54
2019-05-13T12:00:46.100Z,51.40
2019-05-13T12:03:17.880Z,52.29
2019-05-13T12:05:49.434Z,51.76
2019-05-13T12:08:22.740Z,51.52
2019-05-13T12:10:53.833Z,52.10
2019-05-13T12:13:25.369Z,52.30
2019-05-13T12:15:57.148Z,51.65
2019-05-13T12:18:28.643Z,50.79
2019-05-13T12:21:03.512Z,49.69
2019-05-13T12:23:32.392Z,51.48
2019-05-13T12:26:05.139Z,52.41
2019-05-13T12:28:36.911Z,55.45
2019-05-13T12:31:08.332Z,71.95
2019-05-13T12:33:43.799Z,75.85
2019-05-13T12:36:17.877Z,75.90
2019-05-13T12:38:45.161Z,76.18
2019-05-13T12:41:16.515Z,73.80
2019-05-13T12:43:47.927Z,74.16
2019-05-13T12:46:19.721Z,76.20
2019-05-13T12:48:51.186Z,75.35
2019-05-13T12:51:22.913Z,76.58
2019-05-13T12:53:54.458Z,76.26
2019-05-13T12:56:26.103Z,75.25
2019-05-13T12:58:57.500Z,75.66
2019-05-13T13:01:28.964Z,79.60
2019-05-13T13:04:02.216Z,76.53
2019-05-13T13:06:40.595Z,74.66
2019-05-13T13:09:07.506Z,72.96
2019-05-13T13:11:38.985Z,72.84
2019-05-13T13:14:15.112Z,73.95
2019-05-13T13:16:43.537Z,74.03
2019-05-13T13:19:15.323Z,70.15
2019-05-13T13:21:46.751Z,71.46
2019-05-13T13:24:18.241Z,71.31
2019-05-13T13:26:52.566Z,70.15
2019-05-13T13:29:23.092Z,68.76
2019-05-13T13:31:55.807Z,70.49
2019-05-13T13:34:28.679Z,70.55
2019-05-13T13:37:00.183Z,72.27
2019-05-13T13:39:31.953Z,72.76
2019-05-13T13:42:05.861Z,70.64
2019-05-13T13:44:38.700Z,70.13
2019-05-13T13:47:14.666Z,69.04
2019-05-13T13:49:44.023Z,68.23
2019-05-13T13:52:17.877Z,69.03
2019-05-13T13:54:58.938Z,66.16
2019-05-13T13:57:25.609Z,65.41
2019-05-13T14:00:21.027Z,67.26
2019-05-13T14:02:28.581Z,68.26
2019-05-13T14:05:04.884Z,67.22
2019-05-13T14:07:37.842Z,67.50
2019-05-13T14:10:07.419Z,65.51
2019-05-13T14:12:41.548Z,65.49
2019-05-13T14:15:13.729Z,65.34
2019-05-13T14:17:45.174Z,65.48
2019-05-13T14:20:16.759Z,65.28
2019-05-13T14:22:48.273Z,64.18
2019-05-13T14:25:22.235Z,64.76
2019-05-13T14:27:52.794Z,64.30
2019-05-13T14:30:24.314Z,64.88
2019-05-13T14:32:56.062Z,64.67
2019-05-13T14:35:27.585Z,64.59
2019-05-13T14:37:58.905Z,64.92
2019-05-13T14:40:31.972Z,64.02
2019-05-13T14:43:03.691Z,63.08
2019-05-13T14:45:35.967Z,63.20
2019-05-13T14:48:07.371Z,62.66
2019-05-13T14:50:38.717Z,62.67
2019-05-13T14:53:10.303Z,62.16
2019-05-13T14:55:42.063Z,61.58
2019-05-13T14:58:13.788Z,61.72
2019-05-13T15:00:45.332Z,62.98
2019-05-13T15:03:17.125Z,62.64
2019-05-13T15:05:48.668Z,63.27
2019-05-13T15:08:23.226Z,63.38
2019-05-13T15:10:54.921Z,63.99
2019-05-13T15:13:31.330Z,64.27
2019-05-13T15:16:05.349Z,64.15
2019-05-13T15:18:36.764Z,63.74
2019-05-13T15:21:08.370Z,63.63
2019-05-13T15:23:41.860Z,63.61
2019-05-13T15:26:12.770Z,63.39
2019-05-13T15:28:44.092Z,63.71
2019-05-13T15:31:15.461Z,64.09
2019-05-13T15:33:52.134Z,64.12
2019-05-13T15:36:22.847Z,64.60
2019-05-13T15:38:56.176Z,64.28
2019-05-13T15:41:27.860Z,65.13
2019-05-13T15:44:03.198Z,65.17
2019-05-13T15:46:32.439Z,65.60
2019-05-13T15:49:03.830Z,66.35
2019-05-13T15:51:37.322Z,66.12
2019-05-13T15:54:08.875Z,66.43
2019-05-13T15:56:40.326Z,66.48
2019-05-13T15:59:12.578Z,66.23
2019-05-13T16:01:44.996Z,66.46
2019-05-13T16:04:18.682Z,66.36
2019-05-13T16:06:52.138Z,66.69
2019-05-13T16:09:23.710Z,66.87
2019-05-13T16:11:55.158Z,67.02
2019-05-13T16:14:26.613Z,67.24
2019-05-13T16:16:57.881Z,67.77
2019-05-13T16:19:35.650Z,68.29
2019-05-13T16:22:07.301Z,68.49
2019-05-13T16:24:41.299Z,68.70
2019-05-13T16:27:12.162Z,69.99
2019-05-13T16:29:43.888Z,69.87
2019-05-13T16:32:15.520Z,69.64
2019-05-13T16:34:46.925Z,69.54
2019-05-13T16:37:18.375Z,69.23
2019-05-13T16:39:52.008Z,69.21
2019-05-13T16:42:22.873Z,69.79
2019-05-13T16:44:54.397Z,70.42
2019-05-13T16:47:28.623Z,70.11
2019-05-13T16:50:02.697Z,69.92
2019-05-13T16:52:34.317Z,70.46
2019-05-13T16:55:07.570Z,70.59
2019-05-13T16:57:42.312Z,70.15
2019-05-13T17:00:14.442Z,69.74
2019-05-13T17:02:46.089Z,69.82
2019-05-13T17:05:18.009Z,70.20
2019-05-13T17:07:51.538Z,70.13
2019-05-13T17:10:23.056Z,69.09
2019-05-13T17:12:54.387Z,68.99
2019-05-13T17:15:26.601Z,68.89
2019-05-13T17:18:09.285Z,69.50
2019-05-13T17:20:35.351Z,70.15
2019-05-13T17:23:08.368Z,70.16
2019-05-13T17:25:42.135Z,70.49
2019-05-13T17:28:14.293Z,71.15
2019-05-13T17:30:45.757Z,70.86
2019-05-13T17:33:18.631Z,70.75
2019-05-13T17:35:50.076Z,71.28
2019-05-13T17:38:21.886Z,70.73
2019-05-13T17:40:53.328Z,70.69
2019-05-13T17:43:26.256Z,70.71
2019-05-13T17:45:57.707Z,70.83
2019-05-13T17:48:32.094Z,70.34
2019-05-13T17:51:02.269Z,70.28
2019-05-13T17:53:33.784Z,70.16
2019-05-13T17:56:06.788Z,70.69
2019-05-13T17:58:38.198Z,71.43
2019-05-13T18:01:12.465Z,71.86
2019-05-13T18:03:43.877Z,72.30
2019-05-13T18:06:15.218Z,72.86
2019-05-13T18:08:48.397Z,76.16
2019-05-13T18:11:22.017Z,78.12
2019-05-13T18:13:55.004Z,80.28
2019-05-13T18:16:26.491Z,79.81
2019-05-13T18:18:58.104Z,81.52
2019-05-13T18:21:31.976Z,80.92
2019-05-13T18:24:03.747Z,81.77
2019-05-13T18:26:35.338Z,80.90
2019-05-13T18:29:06.853Z,79.47
2019-05-13T18:31:38.230Z,80.69
2019-05-13T18:34:12.025Z,81.33
2019-05-13T18:36:45.932Z,81.63
2019-05-13T18:39:17.418Z,82.45
2019-05-13T18:41:48.769Z,82.49
2019-05-13T18:44:20.128Z,83.73
2019-05-13T18:46:52.429Z,83.15
2019-05-13T18:49:23.915Z,82.40
2019-05-13T18:51:55.186Z,82.05
2019-05-13T18:54:26.566Z,81.50
2019-05-13T18:56:57.972Z,80.95
2019-05-13T18:59:29.464Z,80.79
2019-05-13T19:02:01.689Z,80.91
2019-05-13T19:04:34.215Z,80.81
2019-05-13T19:07:07.769Z,80.86
2019-05-13T19:09:41.666Z,81.89
2019-05-13T19:12:12.693Z,81.14
2019-05-13T19:14:44.300Z,80.38
2019-05-13T19:17:15.786Z,80.77
2019-05-13T19:19:47.388Z,80.19
2019-05-13T19:22:21.285Z,80.71
2019-05-13T19:24:52.224Z,80.27
2019-05-13T19:27:23.580Z,80.42
2019-05-13T19:29:54.880Z,79.53
2019-05-13T19:32:26.277Z,79.33
2019-05-13T19:34:57.757Z,80.42
2019-05-13T19:37:31.603Z,80.32
2019-05-13T19:40:02.441Z,79.85
2019-05-13T19:42:34.336Z,80.45
2019-05-13T19:45:05.987Z,80.03
2019-05-13T19:47:37.500Z,80.18
2019-05-13T19:50:08.996Z,79.99
2019-05-13T19:52:41.503Z,79.56
2019-05-13T19:55:13.049Z,79.72
2019-05-13T19:57:44.669Z,79.54
2019-05-13T20:00:16.588Z,79.36
2019-05-13T20:02:47.970Z,79.00
2019-05-13T20:05:21.103Z,78.89
2019-05-13T20:07:52.582Z,79.01
2019-05-13T20:10:23.881Z,78.69
2019-05-13T20:12:55.440Z,78.59
2019-05-13T20:15:26.889Z,78.15
2019-05-13T20:17:58.361Z,78.60
2019-05-13T20:20:31.752Z,78.43
2019-05-13T20:23:02.482Z,78.09
2019-05-13T20:25:33.696Z,78.01
2019-05-13T20:28:05.288Z,78.39
2019-05-13T20:30:36.912Z,77.48
2019-05-13T20:33:08.234Z,77.56
2019-05-13T20:35:41.529Z,77.62
2019-05-13T20:38:12.667Z,77.62
2019-05-13T20:40:44.095Z,77.74
2019-05-13T20:43:15.480Z,77.63
2019-05-13T20:45:46.849Z,77.72
2019-05-13T20:48:18.187Z,77.80
2019-05-13T20:50:51.910Z,77.94
2019-05-13T20:53:23.466Z,78.62
2019-05-13T20:55:54.909Z,78.72
2019-05-13T20:58:26.358Z,78.95
2019-05-13T21:00:57.812Z,78.92
2019-05-13T21:03:31.395Z,78.72
2019-05-13T21:06:02.453Z,79.04
2019-05-13T21:08:33.904Z,79.33
2019-05-13T21:11:05.354Z,79.50
2019-05-13T21:13:36.600Z,79.80
2019-05-13T21:16:07.910Z,80.10
2019-05-13T21:18:39.231Z,80.02
2019-05-13T21:21:11.710Z,80.10
2019-05-13T21:23:43.283Z,80.15
2019-05-13T21:26:15.718Z,80.10
2019-05-13T21:28:47.359Z,80.38
2019-05-13T21:31:21.499Z,80.02
2019-05-13T21:33:53.162Z,80.29
2019-05-13T21:36:24.503Z,80.49
2019-05-13T21:38:55.954Z,80.52
2019-05-13T21:41:27.375Z,80.82
2019-05-13T21:44:01.180Z,80.56
2019-05-13T21:46:31.918Z,80.89
2019-05-13T21:49:03.408Z,81.10
2019-05-13T21:51:34.722Z,81.52
2019-05-13T21:54:07.224Z,81.55
2019-05-13T21:56:39.128Z,82.06
2019-05-13T21:59:10.498Z,82.49
2019-05-13T22:01:42.457Z,82.61
2019-05-13T22:04:14.258Z,82.30
2019-05-13T22:06:45.784Z,82.36
2019-05-13T22:09:17.218Z,82.73
2019-05-13T22:11:51.133Z,82.78
2019-05-13T22:14:22.703Z,83.31
2019-05-13T22:16:56.524Z,83.36
2019-05-13T22:19:27.087Z,83.51
2019-05-13T22:21:58.446Z,83.32
2019-05-13T22:24:31.187Z,83.87
2019-05-13T22:27:02.882Z,84.06
2019-05-13T22:29:34.294Z,84.35
2019-05-13T22:32:05.623Z,84.37
2019-05-13T22:34:37.022Z,84.58
2019-05-13T22:37:08.417Z,84.79
2019-05-13T22:39:41.918Z,84.96
2019-05-13T22:42:12.971Z,85.02
2019-05-13T22:44:44.475Z,85.07
2019-05-13T22:47:15.913Z,85.09
2019-05-13T22:49:47.208Z,85.01
2019-05-13T22:52:18.699Z,85.08
2019-05-13T22:54:51.814Z,85.07
2019-05-13T22:57:23.307Z,85.16
2019-05-13T22:59:54.460Z,85.34
2019-05-13T23:02:25.908Z,85.27
2019-05-13T23:04:57.375Z,85.74
2019-05-13T23:07:31.427Z,86.11
2019-05-13T23:10:02.028Z,86.12
2019-05-13T23:12:33.449Z,86.33
2019-05-13T23:15:06.745Z,86.28
2019-05-13T23:17:37.473Z,86.30
2019-05-13T23:20:08.728Z,86.50
2019-05-13T23:22:41.429Z,86.44
2019-05-13T23:25:13.482Z,86.84
2019-05-13T23:27:44.991Z,86.70
2019-05-13T23:30:16.527Z,86.92
2019-05-13T23:32:47.845Z,86.79
2019-05-13T23:35:21.532Z,87.02
2019-05-13T23:37:52.307Z,87.23
2019-05-13T23:40:23.708Z,87.15
2019-05-13T23:42:57.245Z,87.54
2019-05-13T23:45:28.661Z,87.45
2019-05-13T23:48:01.555Z,87.32
2019-05-13T23:50:35.261Z,87.32
2019-05-13T23:53:06.804Z,87.12
2019-05-13T23:55:38.269Z,87.03
2019-05-13T23:58:12.571Z,86.96
